Alhambra, Illinois
Current Conditions -  °F | °C
As of 1:55 AM on Monday 24 Nov 2014 (Local Time) from KALN Reporting Station
Moderate Rain Moderate Rain  
Wind Chill: 55°   Ceiling: 300
Heat Index: 55°   Visibility: 3mi
Dew Point: 54°   Wind: 12mph
Humidity: 97%   Direction: 210°SSW
Pressure: 29.18"   Gusts: 18mph
Location:  38.89°N, 89.73°W
Report Text: KALN 240755Z AUTO 21010G16KT 3SM RA BKN003 BKN007 OVC012 13/12 A2918 RMK AO2 P0019 T01250120
Loading
Personal Weather Stations






























Interactive Weather Map New forecast layout! Learn more

10-Day Weather Forecast

Advertisements
Track Severe Weather on mobile